sensor_id;sensor_type;location;lat;lon;timestamp;P1;durP1;ratioP1;P2;durP2;ratioP2
47335;SDS011;33068;51.990;5.926;2022-10-17T00:01:39;20.88;;;12.13;;
47335;SDS011;33068;51.990;5.926;2022-10-17T00:04:08;16.48;;;11.80;;
47335;SDS011;33068;51.990;5.926;2022-10-17T00:06:35;26.55;;;12.27;;
47335;SDS011;33068;51.990;5.926;2022-10-17T00:09:02;16.58;;;12.30;;
47335;SDS011;33068;51.990;5.926;2022-10-17T00:11:29;18.95;;;13.32;;
47335;SDS011;33068;51.990;5.926;2022-10-17T00:13:57;21.60;;;13.00;;
47335;SDS011;33068;51.990;5.926;2022-10-17T00:16:24;20.67;;;13.63;;
47335;SDS011;33068;51.990;5.926;2022-10-17T00:18:53;22.33;;;14.38;;
47335;SDS011;33068;51.990;5.926;2022-10-17T00:21:22;18.90;;;13.35;;
47335;SDS011;33068;51.990;5.926;2022-10-17T00:23:50;21.75;;;13.88;;
47335;SDS011;33068;51.990;5.926;2022-10-17T00:26:17;22.25;;;15.02;;
47335;SDS011;33068;51.990;5.926;2022-10-17T00:28:45;23.48;;;14.63;;
47335;SDS011;33068;51.990;5.926;2022-10-17T00:31:13;23.27;;;13.63;;
47335;SDS011;33068;51.990;5.926;2022-10-17T00:33:41;24.98;;;14.13;;
47335;SDS011;33068;51.990;5.926;2022-10-17T00:36:10;22.00;;;14.48;;
47335;SDS011;33068;51.990;5.926;2022-10-17T00:38:40;18.05;;;13.70;;
47335;SDS011;33068;51.990;5.926;2022-10-17T00:41:09;20.00;;;14.02;;
47335;SDS011;33068;51.990;5.926;2022-10-17T00:43:50;21.13;;;14.73;;
47335;SDS011;33068;51.990;5.926;2022-10-17T00:46:19;24.20;;;15.27;;
47335;SDS011;33068;51.990;5.926;2022-10-17T00:48:47;21.73;;;15.75;;
47335;SDS011;33068;51.990;5.926;2022-10-17T00:51:16;21.88;;;14.40;;
47335;SDS011;33068;51.990;5.926;2022-10-17T00:53:47;26.00;;;15.45;;
47335;SDS011;33068;51.990;5.926;2022-10-17T00:56:16;28.13;;;15.68;;
47335;SDS011;33068;51.990;5.926;2022-10-17T00:58:44;25.05;;;15.70;;
47335;SDS011;33068;51.990;5.926;2022-10-17T01:01:13;29.73;;;16.42;;
47335;SDS011;33068;51.990;5.926;2022-10-17T01:03:41;31.17;;;16.25;;
47335;SDS011;33068;51.990;5.926;2022-10-17T01:06:09;23.25;;;15.95;;
47335;SDS011;33068;51.990;5.926;2022-10-17T01:08:36;26.92;;;15.85;;
47335;SDS011;33068;51.990;5.926;2022-10-17T01:11:07;22.70;;;15.73;;
47335;SDS011;33068;51.990;5.926;2022-10-17T01:13:48;25.23;;;15.70;;
47335;SDS011;33068;51.990;5.926;2022-10-17T01:16:20;24.30;;;16.08;;
47335;SDS011;33068;51.990;5.926;2022-10-17T01:19:00;25.20;;;15.30;;
47335;SDS011;33068;51.990;5.926;2022-10-17T01:21:39;30.00;;;16.45;;
47335;SDS011;33068;51.990;5.926;2022-10-17T01:24:18;23.75;;;15.57;;
47335;SDS011;33068;51.990;5.926;2022-10-17T01:30:22;27.02;;;15.98;;
47335;SDS011;33068;51.990;5.926;2022-10-17T01:33:19;26.50;;;15.65;;
47335;SDS011;33068;51.990;5.926;2022-10-17T01:35:53;26.73;;;15.48;;
47335;SDS011;33068;51.990;5.926;2022-10-17T01:38:26;26.58;;;15.82;;
47335;SDS011;33068;51.990;5.926;2022-10-17T01:40:59;23.13;;;14.80;;
47335;SDS011;33068;51.990;5.926;2022-10-17T01:43:32;26.60;;;16.15;;
47335;SDS011;33068;51.990;5.926;2022-10-17T01:46:05;30.05;;;15.95;;
47335;SDS011;33068;51.990;5.926;2022-10-17T01:48:40;38.67;;;16.48;;
47335;SDS011;33068;51.990;5.926;2022-10-17T01:51:11;24.00;;;15.00;;
47335;SDS011;33068;51.990;5.926;2022-10-17T01:53:45;23.60;;;14.40;;
47335;SDS011;33068;51.990;5.926;2022-10-17T01:56:16;23.88;;;14.50;;
47335;SDS011;33068;51.990;5.926;2022-10-17T01:58:46;26.05;;;15.80;;
47335;SDS011;33068;51.990;5.926;2022-10-17T02:01:17;26.35;;;15.57;;
47335;SDS011;33068;51.990;5.926;2022-10-17T02:03:47;21.95;;;14.32;;
47335;SDS011;33068;51.990;5.926;2022-10-17T02:06:17;21.42;;;14.38;;
47335;SDS011;33068;51.990;5.926;2022-10-17T02:08:45;19.15;;;14.10;;
47335;SDS011;33068;51.990;5.926;2022-10-17T02:11:14;24.67;;;14.57;;
47335;SDS011;33068;51.990;5.926;2022-10-17T02:13:54;26.73;;;15.38;;
47335;SDS011;33068;51.990;5.926;2022-10-17T02:16:38;26.75;;;14.45;;
47335;SDS011;33068;51.990;5.926;2022-10-17T02:19:25;21.73;;;14.20;;
47335;SDS011;33068;51.990;5.926;2022-10-17T02:22:04;26.90;;;14.50;;
47335;SDS011;33068;51.990;5.926;2022-10-17T02:24:44;21.92;;;13.60;;
47335;SDS011;33068;51.990;5.926;2022-10-17T02:27:16;27.00;;;15.45;;
47335;SDS011;33068;51.990;5.926;2022-10-17T02:29:53;23.85;;;15.07;;
47335;SDS011;33068;51.990;5.926;2022-10-17T02:32:27;25.20;;;15.30;;
47335;SDS011;33068;51.990;5.926;2022-10-17T02:35:01;27.42;;;16.52;;
47335;SDS011;33068;51.990;5.926;2022-10-17T02:37:32;27.60;;;15.98;;
47335;SDS011;33068;51.990;5.926;2022-10-17T02:40:00;29.63;;;15.25;;
47335;SDS011;33068;51.990;5.926;2022-10-17T02:42:28;27.33;;;15.82;;
47335;SDS011;33068;51.990;5.926;2022-10-17T02:44:57;30.23;;;16.83;;
47335;SDS011;33068;51.990;5.926;2022-10-17T02:47:27;26.45;;;14.45;;
47335;SDS011;33068;51.990;5.926;2022-10-17T02:49:58;27.58;;;14.73;;
47335;SDS011;33068;51.990;5.926;2022-10-17T02:52:28;31.67;;;15.80;;
47335;SDS011;33068;51.990;5.926;2022-10-17T02:55:02;21.85;;;14.25;;
47335;SDS011;33068;51.990;5.926;2022-10-17T02:57:34;22.20;;;13.95;;
47335;SDS011;33068;51.990;5.926;2022-10-17T03:00:06;26.65;;;15.80;;
47335;SDS011;33068;51.990;5.926;2022-10-17T03:02:39;27.13;;;16.63;;
47335;SDS011;33068;51.990;5.926;2022-10-17T03:05:09;31.17;;;16.02;;
47335;SDS011;33068;51.990;5.926;2022-10-17T03:07:38;25.25;;;16.27;;
47335;SDS011;33068;51.990;5.926;2022-10-17T03:10:05;26.73;;;15.57;;
47335;SDS011;33068;51.990;5.926;2022-10-17T03:12:33;29.15;;;16.20;;
47335;SDS011;33068;51.990;5.926;2022-10-17T03:15:00;26.40;;;15.85;;
47335;SDS011;33068;51.990;5.926;2022-10-17T03:17:28;24.27;;;15.20;;
47335;SDS011;33068;51.990;5.926;2022-10-17T03:19:55;27.77;;;15.20;;
47335;SDS011;33068;51.990;5.926;2022-10-17T03:22:23;26.13;;;16.40;;
47335;SDS011;33068;51.990;5.926;2022-10-17T03:24:53;25.17;;;15.75;;
47335;SDS011;33068;51.990;5.926;2022-10-17T03:27:21;21.40;;;13.73;;
47335;SDS011;33068;51.990;5.926;2022-10-17T03:29:48;24.95;;;15.38;;
47335;SDS011;33068;51.990;5.926;2022-10-17T03:32:15;22.60;;;14.65;;
47335;SDS011;33068;51.990;5.926;2022-10-17T03:34:42;22.67;;;13.80;;
47335;SDS011;33068;51.990;5.926;2022-10-17T03:37:09;24.95;;;13.98;;
47335;SDS011;33068;51.990;5.926;2022-10-17T03:39:38;24.13;;;14.18;;
47335;SDS011;33068;51.990;5.926;2022-10-17T03:42:07;23.45;;;14.55;;
47335;SDS011;33068;51.990;5.926;2022-10-17T03:44:34;22.30;;;14.48;;
47335;SDS011;33068;51.990;5.926;2022-10-17T03:47:03;21.45;;;13.07;;
47335;SDS011;33068;51.990;5.926;2022-10-17T03:49:30;23.63;;;14.32;;
47335;SDS011;33068;51.990;5.926;2022-10-17T03:51:57;20.73;;;14.07;;
47335;SDS011;33068;51.990;5.926;2022-10-17T03:54:25;26.48;;;14.32;;
47335;SDS011;33068;51.990;5.926;2022-10-17T03:56:52;18.80;;;12.73;;
47335;SDS011;33068;51.990;5.926;2022-10-17T03:59:22;21.13;;;13.98;;
47335;SDS011;33068;51.990;5.926;2022-10-17T04:01:58;22.67;;;13.23;;
47335;SDS011;33068;51.990;5.926;2022-10-17T04:04:26;25.75;;;13.95;;
47335;SDS011;33068;51.990;5.926;2022-10-17T04:06:53;24.13;;;13.52;;
47335;SDS011;33068;51.990;5.926;2022-10-17T04:09:20;18.50;;;12.13;;
47335;SDS011;33068;51.990;5.926;2022-10-17T04:11:59;22.58;;;13.82;;
47335;SDS011;33068;51.990;5.926;2022-10-17T04:14:28;19.90;;;13.18;;
47335;SDS011;33068;51.990;5.926;2022-10-17T04:16:55;22.63;;;14.05;;
47335;SDS011;33068;51.990;5.926;2022-10-17T04:19:24;22.35;;;14.43;;
47335;SDS011;33068;51.990;5.926;2022-10-17T04:21:52;21.77;;;14.23;;
47335;SDS011;33068;51.990;5.926;2022-10-17T04:24:20;24.65;;;13.52;;
47335;SDS011;33068;51.990;5.926;2022-10-17T04:27:07;27.35;;;13.70;;
47335;SDS011;33068;51.990;5.926;2022-10-17T04:29:39;25.00;;;13.65;;
47335;SDS011;33068;51.990;5.926;2022-10-17T04:32:20;21.75;;;12.68;;
47335;SDS011;33068;51.990;5.926;2022-10-17T04:34:53;25.38;;;13.93;;
47335;SDS011;33068;51.990;5.926;2022-10-17T04:37:21;28.67;;;13.77;;
47335;SDS011;33068;51.990;5.926;2022-10-17T04:39:51;20.05;;;13.23;;
47335;SDS011;33068;51.990;5.926;2022-10-17T04:42:18;21.88;;;12.80;;
47335;SDS011;33068;51.990;5.926;2022-10-17T04:44:47;22.20;;;13.50;;
47335;SDS011;33068;51.990;5.926;2022-10-17T04:47:16;22.48;;;12.93;;
47335;SDS011;33068;51.990;5.926;2022-10-17T04:49:59;24.05;;;13.65;;
47335;SDS011;33068;51.990;5.926;2022-10-17T04:52:35;24.38;;;11.98;;
47335;SDS011;33068;51.990;5.926;2022-10-17T04:55:06;17.38;;;12.35;;
47335;SDS011;33068;51.990;5.926;2022-10-17T04:57:34;24.20;;;13.77;;
47335;SDS011;33068;51.990;5.926;2022-10-17T05:00:16;24.70;;;13.90;;
47335;SDS011;33068;51.990;5.926;2022-10-17T05:03:01;21.45;;;13.40;;
47335;SDS011;33068;51.990;5.926;2022-10-17T05:05:28;20.45;;;13.32;;
47335;SDS011;33068;51.990;5.926;2022-10-17T05:07:56;23.42;;;13.27;;
47335;SDS011;33068;51.990;5.926;2022-10-17T05:10:27;23.27;;;13.63;;
47335;SDS011;33068;51.990;5.926;2022-10-17T05:12:54;20.80;;;13.60;;
47335;SDS011;33068;51.990;5.926;2022-10-17T05:15:26;26.17;;;13.73;;
47335;SDS011;33068;51.990;5.926;2022-10-17T05:17:54;21.48;;;13.43;;
47335;SDS011;33068;51.990;5.926;2022-10-17T05:20:22;20.70;;;13.07;;
47335;SDS011;33068;51.990;5.926;2022-10-17T05:22:50;21.63;;;13.10;;
47335;SDS011;33068;51.990;5.926;2022-10-17T05:25:17;23.63;;;12.98;;
47335;SDS011;33068;51.990;5.926;2022-10-17T05:27:44;26.05;;;14.55;;
47335;SDS011;33068;51.990;5.926;2022-10-17T05:30:13;22.42;;;12.90;;
47335;SDS011;33068;51.990;5.926;2022-10-17T05:32:42;23.10;;;13.57;;
47335;SDS011;33068;51.990;5.926;2022-10-17T05:35:09;22.38;;;13.00;;
47335;SDS011;33068;51.990;5.926;2022-10-17T05:37:37;26.58;;;14.80;;
47335;SDS011;33068;51.990;5.926;2022-10-17T05:40:05;25.73;;;13.95;;
47335;SDS011;33068;51.990;5.926;2022-10-17T05:42:33;27.92;;;14.38;;
47335;SDS011;33068;51.990;5.926;2022-10-17T05:45:00;23.80;;;13.30;;
47335;SDS011;33068;51.990;5.926;2022-10-17T05:47:28;22.90;;;13.20;;
47335;SDS011;33068;51.990;5.926;2022-10-17T05:49:57;21.83;;;13.95;;
47335;SDS011;33068;51.990;5.926;2022-10-17T05:52:30;23.00;;;13.37;;
47335;SDS011;33068;51.990;5.926;2022-10-17T05:55:05;24.27;;;14.10;;
47335;SDS011;33068;51.990;5.926;2022-10-17T05:57:33;24.48;;;12.50;;
47335;SDS011;33068;51.990;5.926;2022-10-17T06:00:02;15.63;;;10.82;;
47335;SDS011;33068;51.990;5.926;2022-10-17T06:02:39;19.85;;;12.02;;
47335;SDS011;33068;51.990;5.926;2022-10-17T06:05:09;18.10;;;11.98;;
47335;SDS011;33068;51.990;5.926;2022-10-17T06:07:36;23.13;;;12.73;;
47335;SDS011;33068;51.990;5.926;2022-10-17T06:10:05;21.30;;;12.40;;
47335;SDS011;33068;51.990;5.926;2022-10-17T06:12:32;22.15;;;11.60;;
47335;SDS011;33068;51.990;5.926;2022-10-17T06:15:00;21.23;;;12.73;;
47335;SDS011;33068;51.990;5.926;2022-10-17T06:17:27;19.55;;;11.98;;
47335;SDS011;33068;51.990;5.926;2022-10-17T06:19:54;19.73;;;12.15;;
47335;SDS011;33068;51.990;5.926;2022-10-17T06:22:23;19.48;;;11.48;;
47335;SDS011;33068;51.990;5.926;2022-10-17T06:24:51;25.23;;;12.68;;
47335;SDS011;33068;51.990;5.926;2022-10-17T06:27:18;20.48;;;11.80;;
47335;SDS011;33068;51.990;5.926;2022-10-17T06:29:45;18.63;;;12.82;;
47335;SDS011;33068;51.990;5.926;2022-10-17T06:32:13;24.25;;;12.88;;
47335;SDS011;33068;51.990;5.926;2022-10-17T06:34:41;23.05;;;13.98;;
47335;SDS011;33068;51.990;5.926;2022-10-17T06:37:09;22.08;;;13.18;;
47335;SDS011;33068;51.990;5.926;2022-10-17T06:39:39;21.23;;;13.45;;
47335;SDS011;33068;51.990;5.926;2022-10-17T06:42:11;19.45;;;12.52;;
47335;SDS011;33068;51.990;5.926;2022-10-17T06:44:49;22.73;;;13.15;;
47335;SDS011;33068;51.990;5.926;2022-10-17T06:47:19;20.30;;;13.00;;
47335;SDS011;33068;51.990;5.926;2022-10-17T06:49:48;19.50;;;11.75;;
47335;SDS011;33068;51.990;5.926;2022-10-17T06:52:30;21.08;;;12.65;;
47335;SDS011;33068;51.990;5.926;2022-10-17T06:55:22;21.75;;;13.85;;
47335;SDS011;33068;51.990;5.926;2022-10-17T06:58:18;19.83;;;12.88;;
47335;SDS011;33068;51.990;5.926;2022-10-17T07:01:04;24.00;;;13.73;;
47335;SDS011;33068;51.990;5.926;2022-10-17T07:03:33;25.90;;;14.93;;
47335;SDS011;33068;51.990;5.926;2022-10-17T07:06:00;21.02;;;13.88;;
47335;SDS011;33068;51.990;5.926;2022-10-17T07:08:28;20.42;;;14.23;;
47335;SDS011;33068;51.990;5.926;2022-10-17T07:10:59;22.35;;;14.43;;
47335;SDS011;33068;51.990;5.926;2022-10-17T07:13:34;24.48;;;14.38;;
47335;SDS011;33068;51.990;5.926;2022-10-17T07:16:01;23.75;;;15.43;;
47335;SDS011;33068;51.990;5.926;2022-10-17T07:18:30;23.60;;;15.05;;
47335;SDS011;33068;51.990;5.926;2022-10-17T07:20:58;21.63;;;15.00;;
47335;SDS011;33068;51.990;5.926;2022-10-17T07:23:26;27.67;;;15.75;;
47335;SDS011;33068;51.990;5.926;2022-10-17T07:25:57;25.73;;;14.95;;
47335;SDS011;33068;51.990;5.926;2022-10-17T07:28:27;23.02;;;15.90;;
47335;SDS011;33068;51.990;5.926;2022-10-17T07:31:01;24.35;;;15.52;;
47335;SDS011;33068;51.990;5.926;2022-10-17T07:33:29;23.90;;;15.38;;
47335;SDS011;33068;51.990;5.926;2022-10-17T07:35:57;24.77;;;16.02;;
47335;SDS011;33068;51.990;5.926;2022-10-17T07:38:25;26.27;;;15.82;;
47335;SDS011;33068;51.990;5.926;2022-10-17T07:40:53;34.90;;;19.80;;
47335;SDS011;33068;51.990;5.926;2022-10-17T07:43:22;31.52;;;18.85;;
47335;SDS011;33068;51.990;5.926;2022-10-17T07:45:51;31.80;;;17.75;;
47335;SDS011;33068;51.990;5.926;2022-10-17T07:48:19;30.35;;;18.30;;
47335;SDS011;33068;51.990;5.926;2022-10-17T07:50:47;44.88;;;22.83;;
47335;SDS011;33068;51.990;5.926;2022-10-17T07:53:15;32.85;;;20.50;;
47335;SDS011;33068;51.990;5.926;2022-10-17T07:55:42;31.38;;;20.13;;
47335;SDS011;33068;51.990;5.926;2022-10-17T07:58:10;33.33;;;19.48;;
47335;SDS011;33068;51.990;5.926;2022-10-17T08:00:40;31.05;;;19.70;;
47335;SDS011;33068;51.990;5.926;2022-10-17T08:03:08;30.05;;;17.98;;
47335;SDS011;33068;51.990;5.926;2022-10-17T08:05:36;33.03;;;17.77;;
47335;SDS011;33068;51.990;5.926;2022-10-17T08:08:03;28.77;;;17.67;;
47335;SDS011;33068;51.990;5.926;2022-10-17T08:10:30;34.30;;;17.10;;
47335;SDS011;33068;51.990;5.926;2022-10-17T08:12:57;29.52;;;16.85;;
47335;SDS011;33068;51.990;5.926;2022-10-17T08:15:24;32.72;;;15.98;;
47335;SDS011;33068;51.990;5.926;2022-10-17T08:17:53;24.38;;;14.43;;
47335;SDS011;33068;51.990;5.926;2022-10-17T08:20:20;22.27;;;14.85;;
47335;SDS011;33068;51.990;5.926;2022-10-17T08:22:50;28.75;;;14.43;;
47335;SDS011;33068;51.990;5.926;2022-10-17T08:25:17;24.95;;;13.35;;
47335;SDS011;33068;51.990;5.926;2022-10-17T08:27:44;20.60;;;13.05;;
47335;SDS011;33068;51.990;5.926;2022-10-17T08:30:11;19.10;;;12.95;;
47335;SDS011;33068;51.990;5.926;2022-10-17T08:32:38;21.83;;;12.93;;
47335;SDS011;33068;51.990;5.926;2022-10-17T08:35:07;20.73;;;12.90;;
47335;SDS011;33068;51.990;5.926;2022-10-17T08:37:35;16.70;;;11.55;;
47335;SDS011;33068;51.990;5.926;2022-10-17T08:40:02;21.10;;;11.65;;
47335;SDS011;33068;51.990;5.926;2022-10-17T08:42:33;22.75;;;12.43;;
47335;SDS011;33068;51.990;5.926;2022-10-17T08:45:13;16.65;;;11.57;;
47335;SDS011;33068;51.990;5.926;2022-10-17T08:47:46;15.98;;;11.07;;
47335;SDS011;33068;51.990;5.926;2022-10-17T08:50:25;17.38;;;11.77;;
47335;SDS011;33068;51.990;5.926;2022-10-17T08:52:56;19.00;;;12.43;;
47335;SDS011;33068;51.990;5.926;2022-10-17T08:55:31;19.33;;;12.20;;
47335;SDS011;33068;51.990;5.926;2022-10-17T08:58:01;27.33;;;12.70;;
47335;SDS011;33068;51.990;5.926;2022-10-17T09:00:30;19.40;;;12.93;;
47335;SDS011;33068;51.990;5.926;2022-10-17T09:03:02;18.90;;;11.90;;
47335;SDS011;33068;51.990;5.926;2022-10-17T09:05:45;20.55;;;11.88;;
47335;SDS011;33068;51.990;5.926;2022-10-17T09:08:22;21.42;;;12.25;;
47335;SDS011;33068;51.990;5.926;2022-10-17T09:10:57;22.77;;;12.48;;
47335;SDS011;33068;51.990;5.926;2022-10-17T09:13:39;24.63;;;12.50;;
47335;SDS011;33068;51.990;5.926;2022-10-17T09:16:21;25.20;;;12.48;;
47335;SDS011;33068;51.990;5.926;2022-10-17T09:18:59;25.85;;;12.52;;
47335;SDS011;33068;51.990;5.926;2022-10-17T09:21:35;22.65;;;12.43;;
47335;SDS011;33068;51.990;5.926;2022-10-17T09:24:08;18.60;;;11.90;;
47335;SDS011;33068;51.990;5.926;2022-10-17T09:26:40;21.60;;;12.57;;
47335;SDS011;33068;51.990;5.926;2022-10-17T09:29:13;19.95;;;12.07;;
47335;SDS011;33068;51.990;5.926;2022-10-17T09:31:45;22.90;;;12.80;;
47335;SDS011;33068;51.990;5.926;2022-10-17T09:34:16;19.48;;;11.65;;
47335;SDS011;33068;51.990;5.926;2022-10-17T09:36:45;18.67;;;11.85;;
47335;SDS011;33068;51.990;5.926;2022-10-17T09:39:12;20.73;;;11.82;;
47335;SDS011;33068;51.990;5.926;2022-10-17T09:41:42;23.05;;;12.20;;
47335;SDS011;33068;51.990;5.926;2022-10-17T09:44:15;19.83;;;11.90;;
47335;SDS011;33068;51.990;5.926;2022-10-17T09:46:48;19.90;;;12.40;;
47335;SDS011;33068;51.990;5.926;2022-10-17T09:49:36;24.00;;;12.57;;
47335;SDS011;33068;51.990;5.926;2022-10-17T09:52:07;23.38;;;12.98;;
47335;SDS011;33068;51.990;5.926;2022-10-17T09:54:42;21.10;;;12.15;;
47335;SDS011;33068;51.990;5.926;2022-10-17T09:57:11;16.95;;;11.18;;
47335;SDS011;33068;51.990;5.926;2022-10-17T09:59:40;21.77;;;11.43;;
47335;SDS011;33068;51.990;5.926;2022-10-17T10:02:14;20.92;;;11.50;;
47335;SDS011;33068;51.990;5.926;2022-10-17T10:04:57;29.50;;;13.70;;
47335;SDS011;33068;51.990;5.926;2022-10-17T10:07:27;21.13;;;11.82;;
47335;SDS011;33068;51.990;5.926;2022-10-17T10:09:56;17.65;;;10.68;;
47335;SDS011;33068;51.990;5.926;2022-10-17T10:12:25;23.50;;;11.48;;
47335;SDS011;33068;51.990;5.926;2022-10-17T10:14:54;23.00;;;11.15;;
47335;SDS011;33068;51.990;5.926;2022-10-17T10:17:32;26.85;;;12.20;;
47335;SDS011;33068;51.990;5.926;2022-10-17T10:20:03;16.95;;;10.80;;
47335;SDS011;33068;51.990;5.926;2022-10-17T10:23:05;20.83;;;11.30;;
47335;SDS011;33068;51.990;5.926;2022-10-17T10:25:35;23.77;;;11.75;;
47335;SDS011;33068;51.990;5.926;2022-10-17T10:28:08;21.20;;;11.27;;
47335;SDS011;33068;51.990;5.926;2022-10-17T10:30:36;17.08;;;10.43;;
47335;SDS011;33068;51.990;5.926;2022-10-17T10:33:03;25.80;;;11.68;;
47335;SDS011;33068;51.990;5.926;2022-10-17T10:35:31;20.48;;;10.68;;
47335;SDS011;33068;51.990;5.926;2022-10-17T10:38:01;18.35;;;11.95;;
47335;SDS011;33068;51.990;5.926;2022-10-17T10:40:35;21.55;;;10.27;;
47335;SDS011;33068;51.990;5.926;2022-10-17T10:43:18;17.50;;;11.85;;
47335;SDS011;33068;51.990;5.926;2022-10-17T10:45:47;16.85;;;10.70;;
47335;SDS011;33068;51.990;5.926;2022-10-17T10:48:23;22.73;;;11.80;;
47335;SDS011;33068;51.990;5.926;2022-10-17T10:50:52;20.13;;;11.15;;
47335;SDS011;33068;51.990;5.926;2022-10-17T10:53:31;15.40;;;10.60;;
47335;SDS011;33068;51.990;5.926;2022-10-17T10:56:08;18.30;;;10.40;;
47335;SDS011;33068;51.990;5.926;2022-10-17T11:01:21;14.45;;;10.68;;
47335;SDS011;33068;51.990;5.926;2022-10-17T11:03:56;15.13;;;10.25;;
47335;SDS011;33068;51.990;5.926;2022-10-17T11:06:44;19.08;;;11.40;;
47335;SDS011;33068;51.990;5.926;2022-10-17T11:09:17;16.75;;;11.00;;
47335;SDS011;33068;51.990;5.926;2022-10-17T11:11:53;17.75;;;10.32;;
47335;SDS011;33068;51.990;5.926;2022-10-17T11:14:31;19.42;;;11.38;;
47335;SDS011;33068;51.990;5.926;2022-10-17T11:17:07;17.08;;;11.85;;
47335;SDS011;33068;51.990;5.926;2022-10-17T11:19:43;16.52;;;10.88;;
47335;SDS011;33068;51.990;5.926;2022-10-17T11:22:14;18.88;;;11.38;;
47335;SDS011;33068;51.990;5.926;2022-10-17T11:24:45;15.85;;;10.82;;
47335;SDS011;33068;51.990;5.926;2022-10-17T11:27:22;15.95;;;9.60;;
47335;SDS011;33068;51.990;5.926;2022-10-17T11:29:50;15.82;;;11.13;;
47335;SDS011;33068;51.990;5.926;2022-10-17T11:32:18;21.08;;;10.88;;
47335;SDS011;33068;51.990;5.926;2022-10-17T11:34:50;23.17;;;11.50;;
47335;SDS011;33068;51.990;5.926;2022-10-17T11:37:23;19.60;;;10.90;;
47335;SDS011;33068;51.990;5.926;2022-10-17T11:39:55;18.00;;;10.63;;
47335;SDS011;33068;51.990;5.926;2022-10-17T11:42:28;14.82;;;10.50;;
47335;SDS011;33068;51.990;5.926;2022-10-17T11:45:00;15.57;;;11.43;;
47335;SDS011;33068;51.990;5.926;2022-10-17T11:47:33;17.50;;;10.73;;
47335;SDS011;33068;51.990;5.926;2022-10-17T11:50:11;19.38;;;12.23;;
47335;SDS011;33068;51.990;5.926;2022-10-17T11:52:47;17.45;;;10.73;;
47335;SDS011;33068;51.990;5.926;2022-10-17T11:55:18;15.40;;;10.40;;
47335;SDS011;33068;51.990;5.926;2022-10-17T11:58:03;17.05;;;11.48;;
47335;SDS011;33068;51.990;5.926;2022-10-17T12:00:47;16.67;;;11.00;;
47335;SDS011;33068;51.990;5.926;2022-10-17T12:03:24;17.75;;;10.38;;
47335;SDS011;33068;51.990;5.926;2022-10-17T12:06:03;15.68;;;11.38;;
47335;SDS011;33068;51.990;5.926;2022-10-17T12:08:38;18.90;;;11.95;;
47335;SDS011;33068;51.990;5.926;2022-10-17T12:11:13;15.57;;;11.43;;
47335;SDS011;33068;51.990;5.926;2022-10-17T12:13:54;16.13;;;11.52;;
47335;SDS011;33068;51.990;5.926;2022-10-17T12:21:57;17.92;;;11.88;;
47335;SDS011;33068;51.990;5.926;2022-10-17T12:24:31;17.95;;;10.98;;
47335;SDS011;33068;51.990;5.926;2022-10-17T12:30:14;17.95;;;11.40;;
47335;SDS011;33068;51.990;5.926;2022-10-17T12:35:31;16.60;;;12.00;;
47335;SDS011;33068;51.990;5.926;2022-10-17T12:38:00;21.00;;;11.88;;
47335;SDS011;33068;51.990;5.926;2022-10-17T12:52:17;24.33;;;12.68;;
47335;SDS011;33068;51.990;5.926;2022-10-17T12:54:47;23.33;;;13.63;;
47335;SDS011;33068;51.990;5.926;2022-10-17T12:57:19;21.50;;;12.93;;
47335;SDS011;33068;51.990;5.926;2022-10-17T12:59:49;22.48;;;13.10;;
47335;SDS011;33068;51.990;5.926;2022-10-17T13:02:18;19.38;;;13.40;;
47335;SDS011;33068;51.990;5.926;2022-10-17T13:04:48;20.80;;;13.50;;
47335;SDS011;33068;51.990;5.926;2022-10-17T13:07:18;18.75;;;13.57;;
47335;SDS011;33068;51.990;5.926;2022-10-17T13:09:47;20.63;;;13.50;;
47335;SDS011;33068;51.990;5.926;2022-10-17T13:12:19;17.20;;;13.13;;
47335;SDS011;33068;51.990;5.926;2022-10-17T13:14:51;20.70;;;12.55;;
47335;SDS011;33068;51.990;5.926;2022-10-17T13:17:21;18.77;;;13.07;;
47335;SDS011;33068;51.990;5.926;2022-10-17T13:19:51;21.55;;;12.57;;
47335;SDS011;33068;51.990;5.926;2022-10-17T13:22:20;18.95;;;13.52;;
47335;SDS011;33068;51.990;5.926;2022-10-17T13:24:49;18.58;;;12.50;;
47335;SDS011;33068;51.990;5.926;2022-10-17T13:27:21;21.02;;;13.07;;
47335;SDS011;33068;51.990;5.926;2022-10-17T13:29:51;21.33;;;12.82;;
47335;SDS011;33068;51.990;5.926;2022-10-17T13:32:22;19.50;;;12.70;;
47335;SDS011;33068;51.990;5.926;2022-10-17T13:37:38;20.17;;;13.25;;
47335;SDS011;33068;51.990;5.926;2022-10-17T13:40:10;22.30;;;13.32;;
47335;SDS011;33068;51.990;5.926;2022-10-17T13:42:41;19.35;;;12.75;;
47335;SDS011;33068;51.990;5.926;2022-10-17T13:45:12;20.25;;;12.10;;
47335;SDS011;33068;51.990;5.926;2022-10-17T13:47:44;19.02;;;13.02;;
47335;SDS011;33068;51.990;5.926;2022-10-17T13:50:24;17.13;;;12.68;;
47335;SDS011;33068;51.990;5.926;2022-10-17T13:53:07;22.27;;;11.82;;
47335;SDS011;33068;51.990;5.926;2022-10-17T13:58:28;19.00;;;11.50;;
47335;SDS011;33068;51.990;5.926;2022-10-17T14:00:59;21.65;;;12.32;;
47335;SDS011;33068;51.990;5.926;2022-10-17T14:03:26;22.77;;;12.90;;
47335;SDS011;33068;51.990;5.926;2022-10-17T14:05:59;18.27;;;12.30;;
47335;SDS011;33068;51.990;5.926;2022-10-17T14:08:29;17.77;;;11.70;;
47335;SDS011;33068;51.990;5.926;2022-10-17T14:10:57;23.05;;;11.88;;
47335;SDS011;33068;51.990;5.926;2022-10-17T14:13:25;18.17;;;12.32;;
47335;SDS011;33068;51.990;5.926;2022-10-17T14:15:55;18.80;;;12.35;;
47335;SDS011;33068;51.990;5.926;2022-10-17T14:18:27;15.35;;;11.95;;
47335;SDS011;33068;51.990;5.926;2022-10-17T14:20:55;18.20;;;12.23;;
47335;SDS011;33068;51.990;5.926;2022-10-17T14:23:35;15.32;;;12.05;;
47335;SDS011;33068;51.990;5.926;2022-10-17T14:26:07;19.80;;;12.20;;
47335;SDS011;33068;51.990;5.926;2022-10-17T14:28:38;17.35;;;13.23;;
47335;SDS011;33068;51.990;5.926;2022-10-17T14:31:08;18.92;;;13.52;;
47335;SDS011;33068;51.990;5.926;2022-10-17T14:33:57;17.33;;;13.13;;
47335;SDS011;33068;51.990;5.926;2022-10-17T14:36:30;22.23;;;15.02;;
47335;SDS011;33068;51.990;5.926;2022-10-17T14:39:05;16.88;;;13.70;;
47335;SDS011;33068;51.990;5.926;2022-10-17T14:41:34;18.08;;;13.48;;
47335;SDS011;33068;51.990;5.926;2022-10-17T14:44:04;21.27;;;14.07;;
47335;SDS011;33068;51.990;5.926;2022-10-17T14:46:34;19.27;;;14.40;;
47335;SDS011;33068;51.990;5.926;2022-10-17T14:49:03;18.02;;;14.27;;
47335;SDS011;33068;51.990;5.926;2022-10-17T14:51:33;17.52;;;13.60;;
47335;SDS011;33068;51.990;5.926;2022-10-17T14:54:02;18.90;;;14.02;;
47335;SDS011;33068;51.990;5.926;2022-10-17T14:56:48;21.23;;;13.38;;
47335;SDS011;33068;51.990;5.926;2022-10-17T14:59:17;22.40;;;14.85;;
47335;SDS011;33068;51.990;5.926;2022-10-17T15:01:48;20.83;;;15.10;;
47335;SDS011;33068;51.990;5.926;2022-10-17T15:04:15;23.70;;;14.48;;
47335;SDS011;33068;51.990;5.926;2022-10-17T15:06:43;19.88;;;14.27;;
47335;SDS011;33068;51.990;5.926;2022-10-17T15:09:11;17.77;;;13.88;;
47335;SDS011;33068;51.990;5.926;2022-10-17T15:11:39;19.08;;;13.93;;
47335;SDS011;33068;51.990;5.926;2022-10-17T15:14:06;23.02;;;15.40;;
47335;SDS011;33068;51.990;5.926;2022-10-17T15:16:33;22.42;;;15.93;;
47335;SDS011;33068;51.990;5.926;2022-10-17T15:19:01;20.50;;;15.07;;
47335;SDS011;33068;51.990;5.926;2022-10-17T15:21:28;21.45;;;15.18;;